createdAt,value
2022-11-26T00:00:14.642Z,34.71
2022-11-26T00:02:42.708Z,34.62
2022-11-26T00:05:13.335Z,34.55
2022-11-26T00:07:41.334Z,34.61
2022-11-26T00:10:15.637Z,34.59
2022-11-26T00:12:43.521Z,34.48
2022-11-26T00:15:16.079Z,34.64
2022-11-26T00:17:44.074Z,34.61
2022-11-26T00:20:13.405Z,34.55
2022-11-26T00:22:42.021Z,34.47
2022-11-26T00:25:15.867Z,34.76
2022-11-26T00:27:43.718Z,34.63
2022-11-26T00:30:18.963Z,34.63
2022-11-26T00:32:46.953Z,34.65
2022-11-26T00:35:16.703Z,34.76
2022-11-26T00:37:45.544Z,34.56
2022-11-26T00:40:20.135Z,34.46
2022-11-26T00:42:48.403Z,34.61
2022-11-26T00:45:18.252Z,34.44
2022-11-26T00:47:46.142Z,34.62
2022-11-26T00:50:19.704Z,34.36
2022-11-26T00:52:47.965Z,34.51
2022-11-26T00:55:20.702Z,34.51
2022-11-26T00:57:48.543Z,34.48
2022-11-26T01:00:18.197Z,34.54
2022-11-26T01:02:46.266Z,34.36
2022-11-26T01:05:14.534Z,34.44
2022-11-26T01:07:43.891Z,34.36
2022-11-26T01:10:17.035Z,34.44
2022-11-26T01:12:44.914Z,34.47
2022-11-26T01:15:13.161Z,34.30
2022-11-26T01:17:41.117Z,34.37
2022-11-26T01:20:20.490Z,34.32
2022-11-26T01:22:53.799Z,34.41
2022-11-26T01:25:22.035Z,34.26
2022-11-26T01:27:49.926Z,34.25
2022-11-26T01:30:21.139Z,34.37
2022-11-26T01:32:49.154Z,34.33
2022-11-26T01:35:17.567Z,34.49
2022-11-26T01:37:45.470Z,34.41
2022-11-26T01:40:30.617Z,34.32
2022-11-26T01:43:01.205Z,34.46
2022-11-26T01:45:29.439Z,34.31
2022-11-26T01:47:57.363Z,34.26
2022-11-26T01:50:46.995Z,34.27
2022-11-26T01:53:16.011Z,34.10
2022-11-26T01:55:47.324Z,34.42
2022-11-26T01:58:17.119Z,34.22
2022-11-26T02:00:45.031Z,34.43
2022-11-26T02:03:12.969Z,34.22
2022-11-26T02:05:42.027Z,34.27
2022-11-26T02:08:10.002Z,34.32
2022-11-26T02:10:37.884Z,34.24
2022-11-26T02:13:07.086Z,34.38
2022-11-26T02:15:37.604Z,34.19
2022-11-26T02:18:06.050Z,34.13
2022-11-26T02:20:42.929Z,34.10
2022-11-26T02:23:38.435Z,34.21
2022-11-26T02:26:59.768Z,34.29
2022-11-26T02:29:34.152Z,34.12
2022-11-26T02:32:05.408Z,34.26
2022-11-26T02:34:37.958Z,34.04
2022-11-26T02:37:08.738Z,34.44
2022-11-26T02:39:36.594Z,34.44
2022-11-26T02:42:04.693Z,34.30
2022-11-26T02:44:35.947Z,33.96
2022-11-26T02:47:07.507Z,34.08
2022-11-26T02:49:35.430Z,34.24
2022-11-26T02:52:03.974Z,34.22
2022-11-26T02:54:31.818Z,33.95
2022-11-26T02:57:00.011Z,34.21
2022-11-26T02:59:27.864Z,34.20
2022-11-26T03:01:57.286Z,34.24
2022-11-26T03:04:28.175Z,34.10
2022-11-26T03:06:56.680Z,34.18
2022-11-26T03:09:24.533Z,34.28
2022-11-26T03:11:52.655Z,33.97
2022-11-26T03:14:20.604Z,34.08
2022-11-26T03:16:48.850Z,34.23
2022-11-26T03:19:16.765Z,34.16
2022-11-26T03:21:46.036Z,34.03
2022-11-26T03:24:13.914Z,34.07
2022-11-26T03:26:42.070Z,34.25
2022-11-26T03:29:09.926Z,34.19
2022-11-26T03:31:37.891Z,33.98
2022-11-26T03:34:05.822Z,34.08
2022-11-26T03:36:34.003Z,34.04
2022-11-26T03:39:03.219Z,34.31
2022-11-26T03:41:31.143Z,34.02
2022-11-26T03:43:59.029Z,33.96
2022-11-26T03:46:27.255Z,34.23
2022-11-26T03:48:56.100Z,33.98
2022-11-26T03:51:24.123Z,34.22
2022-11-26T03:53:51.999Z,34.16
2022-11-26T03:56:21.564Z,34.15
2022-11-26T03:58:49.456Z,34.00
2022-11-26T04:01:17.362Z,34.22
2022-11-26T04:03:45.389Z,34.10
2022-11-26T04:06:13.599Z,33.93
2022-11-26T04:08:41.450Z,34.04
2022-11-26T04:11:09.349Z,34.04
2022-11-26T04:13:38.602Z,34.19
2022-11-26T04:16:07.506Z,34.22
2022-11-26T04:18:35.455Z,34.18
2022-11-26T04:21:03.372Z,33.96
2022-11-26T04:23:31.276Z,34.04
2022-11-26T04:25:59.522Z,33.98
2022-11-26T04:28:27.406Z,34.08
2022-11-26T04:30:56.709Z,33.96
2022-11-26T04:33:26.926Z,33.97
2022-11-26T04:35:55.498Z,34.04
2022-11-26T04:38:25.958Z,33.82
2022-11-26T04:40:54.164Z,34.21
2022-11-26T04:43:22.044Z,34.15
2022-11-26T04:45:49.964Z,34.07
2022-11-26T04:48:19.398Z,34.00
2022-11-26T04:50:47.279Z,33.96
2022-11-26T04:53:15.152Z,33.98
2022-11-26T04:55:44.301Z,34.20
2022-11-26T04:58:12.186Z,34.00
2022-11-26T05:00:40.267Z,34.20
2022-11-26T05:03:08.327Z,34.09
2022-11-26T05:05:37.970Z,34.03
2022-11-26T05:08:05.868Z,34.04
2022-11-26T05:10:33.840Z,34.08
2022-11-26T05:13:01.696Z,33.85
2022-11-26T05:15:29.894Z,34.05
2022-11-26T05:17:57.792Z,33.87
2022-11-26T05:20:25.697Z,33.84
2022-11-26T05:22:54.984Z,33.87
2022-11-26T05:25:23.136Z,33.95
2022-11-26T05:27:50.966Z,33.90
2022-11-26T05:30:18.915Z,33.98
2022-11-26T05:32:48.029Z,33.98
2022-11-26T05:35:16.382Z,33.82
2022-11-26T05:37:44.245Z,33.88
2022-11-26T05:40:14.314Z,33.74
2022-11-26T05:42:44.215Z,33.82
2022-11-26T05:45:12.577Z,33.68
2022-11-26T05:47:40.682Z,33.76
2022-11-26T05:50:10.638Z,34.07
2022-11-26T05:52:38.516Z,33.81
2022-11-26T05:55:08.215Z,33.73
2022-11-26T05:57:38.034Z,34.10
2022-11-26T06:00:10.525Z,33.87
2022-11-26T06:02:38.607Z,33.66
2022-11-26T06:05:07.699Z,33.61
2022-11-26T06:07:38.398Z,33.82
2022-11-26T06:10:09.847Z,34.20
2022-11-26T06:12:39.220Z,33.78
2022-11-26T06:15:10.730Z,33.61
2022-11-26T06:17:38.606Z,33.74
2022-11-26T06:20:07.625Z,33.64
2022-11-26T06:22:38.235Z,34.01
2022-11-26T06:25:07.350Z,33.61
2022-11-26T06:27:35.208Z,33.74
2022-11-26T06:30:04.781Z,33.63
2022-11-26T06:32:32.938Z,33.75
2022-11-26T06:35:00.839Z,33.83
2022-11-26T06:37:28.713Z,33.73
2022-11-26T06:39:56.651Z,33.61
2022-11-26T06:42:24.540Z,33.41
2022-11-26T06:44:55.856Z,33.70
2022-11-26T06:47:27.737Z,33.60
2022-11-26T06:49:55.651Z,33.66
2022-11-26T06:52:23.505Z,33.58
2022-11-26T06:54:51.418Z,33.51
2022-11-26T06:57:19.357Z,33.55
2022-11-26T06:59:47.247Z,33.73
2022-11-26T07:02:15.211Z,33.78
2022-11-26T07:04:44.485Z,33.77
2022-11-26T07:07:12.648Z,33.47
2022-11-26T07:09:40.603Z,33.53
2022-11-26T07:12:08.595Z,33.61
2022-11-26T07:14:36.702Z,33.66
2022-11-26T07:17:05.159Z,33.68
2022-11-26T07:19:33.150Z,33.46
2022-11-26T07:22:02.388Z,33.43
2022-11-26T07:24:30.436Z,33.51
2022-11-26T07:26:58.551Z,33.48
2022-11-26T07:29:26.412Z,33.57
2022-11-26T07:31:54.352Z,33.59
2022-11-26T07:34:22.292Z,33.63
2022-11-26T07:36:53.954Z,33.51
2022-11-26T07:39:25.997Z,33.51
2022-11-26T07:41:53.846Z,33.63
2022-11-26T07:44:21.722Z,33.63
2022-11-26T07:46:49.883Z,33.46
2022-11-26T07:49:17.730Z,33.49
2022-11-26T07:51:45.677Z,33.49
2022-11-26T07:54:13.557Z,33.53
2022-11-26T07:56:43.056Z,33.70
2022-11-26T07:59:11.184Z,33.42
2022-11-26T08:01:39.117Z,33.45
2022-11-26T08:04:07.805Z,33.67
2022-11-26T08:06:35.998Z,33.40
2022-11-26T08:09:04.373Z,33.51
2022-11-26T08:11:33.053Z,33.39
2022-11-26T08:14:02.935Z,33.48
2022-11-26T08:16:31.215Z,33.28
2022-11-26T08:19:00.474Z,33.33
2022-11-26T08:21:28.537Z,33.70
2022-11-26T08:23:56.572Z,33.61
2022-11-26T08:26:33.573Z,33.37
2022-11-26T08:29:04.278Z,33.49
2022-11-26T08:31:32.350Z,33.45
2022-11-26T08:34:00.451Z,33.30
2022-11-26T08:36:28.819Z,33.48
2022-11-26T08:38:56.687Z,33.50
2022-11-26T08:41:24.580Z,33.51
2022-11-26T08:44:08.577Z,33.40
2022-11-26T08:46:38.743Z,33.37
2022-11-26T08:49:06.721Z,33.56
2022-11-26T08:51:34.598Z,33.46
2022-11-26T08:54:02.530Z,33.47
2022-11-26T08:56:30.783Z,33.46
2022-11-26T08:58:58.845Z,33.67
2022-11-26T09:01:27.664Z,33.28
2022-11-26T09:03:57.876Z,33.43
2022-11-26T09:06:26.915Z,33.42
2022-11-26T09:09:12.328Z,33.56
2022-11-26T09:11:41.194Z,33.63
2022-11-26T09:14:09.126Z,33.45
2022-11-26T09:16:37.570Z,33.50
2022-11-26T09:19:07.209Z,33.42
2022-11-26T09:21:35.369Z,33.52
2022-11-26T09:24:03.536Z,33.34
2022-11-26T09:26:31.804Z,33.01
2022-11-26T09:29:00.870Z,33.75
2022-11-26T09:31:28.883Z,33.32
2022-11-26T09:33:56.974Z,33.69
2022-11-26T09:36:26.268Z,33.48
2022-11-26T09:38:55.705Z,33.38
2022-11-26T09:41:34.255Z,33.40
2022-11-26T09:44:25.380Z,33.44
2022-11-26T09:47:15.354Z,33.68
2022-11-26T09:49:50.661Z,33.34
2022-11-26T09:52:20.474Z,33.52
2022-11-26T09:54:48.506Z,33.63
2022-11-26T09:57:21.479Z,33.58
2022-11-26T09:59:49.349Z,33.56
2022-11-26T10:02:17.300Z,33.58
2022-11-26T10:04:45.228Z,33.44
2022-11-26T10:07:27.087Z,33.48
2022-11-26T10:09:59.857Z,33.42
2022-11-26T10:12:38.267Z,33.66
2022-11-26T10:15:19.156Z,33.22
2022-11-26T10:17:51.658Z,33.45
2022-11-26T10:20:44.882Z,33.45
2022-11-26T10:23:19.038Z,33.74
2022-11-26T10:25:48.257Z,33.51
2022-11-26T10:28:20.098Z,33.24
2022-11-26T10:30:48.143Z,33.73
2022-11-26T10:33:18.265Z,33.45
2022-11-26T10:35:48.107Z,33.79
2022-11-26T10:38:17.509Z,33.40
2022-11-26T10:40:45.405Z,33.44
2022-11-26T10:43:17.080Z,33.49
2022-11-26T10:45:47.122Z,33.42
2022-11-26T10:48:25.848Z,33.15
2022-11-26T10:51:01.080Z,33.62
2022-11-26T10:53:31.134Z,33.34
2022-11-26T10:55:59.532Z,33.48
2022-11-26T10:58:32.017Z,33.58
2022-11-26T11:01:01.405Z,33.56
2022-11-26T11:04:06.156Z,33.57
2022-11-26T11:06:29.007Z,33.59
2022-11-26T11:08:58.233Z,33.34
2022-11-26T11:11:27.228Z,33.43
2022-11-26T11:13:55.218Z,33.48
2022-11-26T11:16:27.342Z,33.62
2022-11-26T11:18:56.664Z,33.45
2022-11-26T11:21:24.964Z,33.31
2022-11-26T11:24:08.203Z,33.44
2022-11-26T11:26:43.478Z,33.57
2022-11-26T11:29:25.609Z,33.60
2022-11-26T11:31:54.447Z,33.62
2022-11-26T11:34:23.944Z,33.53
2022-11-26T11:37:14.899Z,33.54
2022-11-26T11:39:43.403Z,33.56
2022-11-26T11:42:19.089Z,33.51
2022-11-26T11:44:47.802Z,33.53
2022-11-26T11:47:28.910Z,33.39
2022-11-26T11:50:15.261Z,33.37
2022-11-26T11:52:48.231Z,33.50
2022-11-26T11:55:21.227Z,33.63
2022-11-26T11:58:15.488Z,33.49
2022-11-26T12:00:46.327Z,33.48
2022-11-26T12:03:45.928Z,33.61
2022-11-26T12:06:19.520Z,33.43
2022-11-26T12:08:54.216Z,33.66
2022-11-26T12:11:31.907Z,33.49
2022-11-26T12:14:02.822Z,33.42
2022-11-26T12:16:34.678Z,33.42
2022-11-26T12:19:04.393Z,33.54
2022-11-26T12:21:36.303Z,33.45
2022-11-26T12:24:08.026Z,33.41
2022-11-26T12:26:37.857Z,33.55
2022-11-26T12:29:08.042Z,33.52
2022-11-26T12:31:37.704Z,33.59
2022-11-26T12:34:08.961Z,33.59
2022-11-26T12:36:41.132Z,33.72
2022-11-26T12:39:18.512Z,33.64
2022-11-26T12:41:49.490Z,33.68
2022-11-26T12:44:20.620Z,33.50
2022-11-26T12:46:51.361Z,33.44
2022-11-26T12:49:22.889Z,33.59
2022-11-26T12:51:55.551Z,33.70
2022-11-26T12:54:24.665Z,33.65
2022-11-26T12:56:57.138Z,33.59
2022-11-26T12:59:28.683Z,33.34
2022-11-26T13:01:56.925Z,33.45
2022-11-26T13:04:40.196Z,33.48
2022-11-26T13:07:13.816Z,33.65
2022-11-26T13:09:52.246Z,33.33
2022-11-26T13:12:23.588Z,33.79
2022-11-26T13:14:54.224Z,33.79
2022-11-26T13:17:24.802Z,33.44
2022-11-26T13:19:54.266Z,33.56
2022-11-26T13:22:44.629Z,33.44
2022-11-26T13:25:51.250Z,33.65
2022-11-26T13:28:26.966Z,33.66
2022-11-26T13:31:03.497Z,33.64
2022-11-26T13:33:57.785Z,33.54
2022-11-26T13:36:51.231Z,33.71
2022-11-26T13:39:40.761Z,33.86
2022-11-26T13:42:16.132Z,33.62
2022-11-26T13:45:02.620Z,33.44
2022-11-26T13:47:33.058Z,33.73
2022-11-26T13:50:02.382Z,33.84
2022-11-26T13:52:31.617Z,33.56
2022-11-26T13:55:00.820Z,33.65
2022-11-26T13:57:31.615Z,33.69
2022-11-26T13:59:59.530Z,33.63
2022-11-26T14:02:44.417Z,33.78
2022-11-26T14:05:14.394Z,33.79
2022-11-26T14:07:42.404Z,33.67
2022-11-26T14:10:21.210Z,33.54
2022-11-26T14:13:14.379Z,33.66
2022-11-26T14:15:56.972Z,33.54
2022-11-26T14:19:06.313Z,33.73
2022-11-26T14:21:50.440Z,33.61
2022-11-26T14:24:20.848Z,33.67
2022-11-26T14:26:48.749Z,33.53
2022-11-26T14:29:19.092Z,33.61
2022-11-26T14:31:50.971Z,33.54
2022-11-26T14:34:21.576Z,33.38
2022-11-26T14:36:58.432Z,33.68
2022-11-26T14:39:26.709Z,33.63
2022-11-26T14:41:58.947Z,33.61
2022-11-26T14:44:30.154Z,33.66
2022-11-26T14:47:00.509Z,33.71
2022-11-26T14:49:34.226Z,33.83
2022-11-26T14:52:03.651Z,33.83
2022-11-26T14:54:32.770Z,33.60
2022-11-26T14:57:04.955Z,33.64
2022-11-26T14:59:32.818Z,33.56
2022-11-26T15:02:00.780Z,33.59
2022-11-26T15:04:30.012Z,33.44
2022-11-26T15:06:58.563Z,33.83
2022-11-26T15:09:28.734Z,33.44
2022-11-26T15:12:02.740Z,33.68
2022-11-26T15:14:38.176Z,33.71
2022-11-26T15:17:06.826Z,33.76
2022-11-26T15:19:36.503Z,33.78
2022-11-26T15:22:07.020Z,33.76
2022-11-26T15:24:36.406Z,33.66
2022-11-26T15:27:04.467Z,33.69
2022-11-26T15:29:36.667Z,33.54
2022-11-26T15:32:04.803Z,33.72
2022-11-26T15:34:32.725Z,33.64
2022-11-26T15:37:00.910Z,33.84
2022-11-26T15:39:30.100Z,33.53
2022-11-26T15:42:02.637Z,33.68
2022-11-26T15:44:30.518Z,33.50
2022-11-26T15:46:58.681Z,33.82
2022-11-26T15:49:27.955Z,33.55
2022-11-26T15:51:57.168Z,33.71
2022-11-26T15:54:30.822Z,33.66
2022-11-26T15:57:09.078Z,33.76
2022-11-26T15:59:41.190Z,33.87
2022-11-26T16:02:17.127Z,33.57
2022-11-26T16:04:45.796Z,33.60
2022-11-26T16:07:14.830Z,33.66
2022-11-26T16:09:42.738Z,33.81
2022-11-26T16:12:31.942Z,33.52
2022-11-26T16:15:22.357Z,33.73
2022-11-26T16:17:50.646Z,33.68
2022-11-26T16:20:19.923Z,33.62
2022-11-26T16:22:49.494Z,33.81
2022-11-26T16:25:21.567Z,33.65
2022-11-26T16:28:05.185Z,33.70
2022-11-26T16:30:33.532Z,33.71
2022-11-26T16:33:01.532Z,33.76
2022-11-26T16:35:45.300Z,33.62
2022-11-26T16:38:19.200Z,33.77
2022-11-26T16:40:47.126Z,33.68
2022-11-26T16:43:16.556Z,33.67
2022-11-26T16:45:44.518Z,33.47
2022-11-26T16:48:17.153Z,33.71
2022-11-26T16:50:45.120Z,33.53
2022-11-26T16:53:13.046Z,33.46
2022-11-26T16:55:41.193Z,33.71
2022-11-26T16:58:12.738Z,33.62
2022-11-26T17:00:42.029Z,33.52
2022-11-26T17:03:14.260Z,33.58
2022-11-26T17:05:42.887Z,33.84
2022-11-26T17:08:11.539Z,33.58
2022-11-26T17:10:39.883Z,33.68
2022-11-26T17:13:07.891Z,33.73
2022-11-26T17:15:35.779Z,33.66
2022-11-26T17:18:06.675Z,33.61
2022-11-26T17:20:34.681Z,33.48
2022-11-26T17:23:02.657Z,33.64
2022-11-26T17:25:30.797Z,33.97
2022-11-26T17:27:58.699Z,33.59
2022-11-26T17:30:26.625Z,33.62
2022-11-26T17:32:54.529Z,33.67
2022-11-26T17:35:23.826Z,33.54
2022-11-26T17:37:51.686Z,33.54
2022-11-26T17:40:20.599Z,33.43
2022-11-26T17:42:48.640Z,33.48
2022-11-26T17:45:16.748Z,33.61
2022-11-26T17:47:44.887Z,33.52
2022-11-26T17:50:16.310Z,33.83
2022-11-26T17:52:45.927Z,33.59
2022-11-26T17:55:13.894Z,33.55
2022-11-26T17:57:41.784Z,33.58
2022-11-26T18:00:14.432Z,33.69
2022-11-26T18:02:43.588Z,33.49
2022-11-26T18:05:11.675Z,33.48
2022-11-26T18:07:39.800Z,33.65
2022-11-26T18:10:12.409Z,33.73
2022-11-26T18:12:40.274Z,33.72
2022-11-26T18:15:16.473Z,33.52
2022-11-26T18:17:48.193Z,33.54
2022-11-26T18:20:18.236Z,33.66
2022-11-26T18:22:46.786Z,33.48
2022-11-26T18:25:16.489Z,33.61
2022-11-26T18:27:44.477Z,33.47
2022-11-26T18:30:13.050Z,33.65
2022-11-26T18:32:41.266Z,33.73
2022-11-26T18:35:10.953Z,33.48
2022-11-26T18:37:39.295Z,33.56
2022-11-26T18:40:08.672Z,33.29
2022-11-26T18:42:38.536Z,33.70
2022-11-26T18:45:13.977Z,33.47
2022-11-26T18:47:41.997Z,33.70
2022-11-26T18:50:10.470Z,33.60
2022-11-26T18:52:38.811Z,33.56
2022-11-26T18:55:08.686Z,33.47
2022-11-26T18:57:37.982Z,33.32
2022-11-26T19:00:09.445Z,33.60
2022-11-26T19:02:37.436Z,33.58
2022-11-26T19:05:05.864Z,33.46
2022-11-26T19:07:34.199Z,33.42
2022-11-26T19:10:02.187Z,33.39
2022-11-26T19:12:30.262Z,33.52
2022-11-26T19:14:59.565Z,33.59
2022-11-26T19:17:27.481Z,33.44
2022-11-26T19:19:55.352Z,33.58
2022-11-26T19:22:23.306Z,33.53
2022-11-26T19:24:51.204Z,33.58
2022-11-26T19:27:19.093Z,33.42
2022-11-26T19:29:46.981Z,33.53
2022-11-26T19:32:16.252Z,33.58
2022-11-26T19:34:44.195Z,33.55
2022-11-26T19:37:12.318Z,33.53
2022-11-26T19:39:41.130Z,33.43
2022-11-26T19:42:09.307Z,33.35
2022-11-26T19:44:37.186Z,33.47
2022-11-26T19:47:05.590Z,33.45
2022-11-26T19:49:35.241Z,33.49
2022-11-26T19:52:03.135Z,33.49
2022-11-26T19:54:31.046Z,33.46
2022-11-26T19:56:58.927Z,33.37
2022-11-26T19:59:26.822Z,33.52
2022-11-26T20:01:55.895Z,33.46
2022-11-26T20:04:27.392Z,33.60
2022-11-26T20:06:56.799Z,33.63
2022-11-26T20:09:24.673Z,33.38
2022-11-26T20:11:52.641Z,33.46
2022-11-26T20:14:20.541Z,33.54
2022-11-26T20:16:48.464Z,33.23
2022-11-26T20:19:16.593Z,33.49
2022-11-26T20:21:44.545Z,33.29
2022-11-26T20:24:15.733Z,33.48
2022-11-26T20:26:43.854Z,33.33
2022-11-26T20:29:13.045Z,33.47
2022-11-26T20:31:41.415Z,33.34
2022-11-26T20:34:09.317Z,33.29
2022-11-26T20:36:37.751Z,33.47
2022-11-26T20:39:05.607Z,33.39
2022-11-26T20:41:34.900Z,33.38
2022-11-26T20:44:02.840Z,33.55
2022-11-26T20:46:30.823Z,33.64
2022-11-26T20:48:58.760Z,33.44
2022-11-26T20:51:26.648Z,33.46
2022-11-26T20:53:54.585Z,33.26
2022-11-26T20:56:23.380Z,33.44
2022-11-26T20:58:53.008Z,33.51
2022-11-26T21:01:21.772Z,33.42
2022-11-26T21:03:49.722Z,33.41
2022-11-26T21:06:19.105Z,33.47
2022-11-26T21:08:46.958Z,33.50
2022-11-26T21:11:15.210Z,33.41
2022-11-26T21:13:43.197Z,33.43
2022-11-26T21:16:13.976Z,33.42
2022-11-26T21:18:41.898Z,33.44
2022-11-26T21:21:10.215Z,33.44
2022-11-26T21:23:39.047Z,33.60
2022-11-26T21:26:08.104Z,33.33
2022-11-26T21:28:36.021Z,33.54
2022-11-26T21:31:07.565Z,33.37
2022-11-26T21:33:36.947Z,33.42
2022-11-26T21:36:06.708Z,33.48
2022-11-26T21:38:34.665Z,33.24
2022-11-26T21:41:06.047Z,33.44
2022-11-26T21:43:33.956Z,33.29
2022-11-26T21:46:03.564Z,33.27
2022-11-26T21:48:31.550Z,33.29
2022-11-26T21:51:00.839Z,33.32
2022-11-26T21:53:28.690Z,33.33
2022-11-26T21:55:56.869Z,33.46
2022-11-26T21:58:24.814Z,33.25
2022-11-26T22:00:52.670Z,33.43
2022-11-26T22:03:20.606Z,33.42
2022-11-26T22:05:48.554Z,33.27
2022-11-26T22:08:17.790Z,33.32
2022-11-26T22:10:45.823Z,33.31
2022-11-26T22:13:13.751Z,33.24
2022-11-26T22:15:44.299Z,33.32
2022-11-26T22:18:12.234Z,33.54
2022-11-26T22:20:40.533Z,33.29
2022-11-26T22:23:08.448Z,33.30
2022-11-26T22:25:38.061Z,33.26
2022-11-26T22:28:06.252Z,33.65
2022-11-26T22:30:34.185Z,33.39
2022-11-26T22:33:03.612Z,33.36
2022-11-26T22:35:31.493Z,33.17
2022-11-26T22:37:59.373Z,33.27
2022-11-26T22:40:27.278Z,33.15
2022-11-26T22:42:56.566Z,33.27
2022-11-26T22:45:24.474Z,33.34
2022-11-26T22:47:52.958Z,33.20
2022-11-26T22:50:20.991Z,33.24
2022-11-26T22:52:48.863Z,33.32
2022-11-26T22:55:16.791Z,33.31
2022-11-26T22:57:44.680Z,33.41
2022-11-26T23:00:15.889Z,33.37
2022-11-26T23:02:43.909Z,33.03
2022-11-26T23:05:12.478Z,33.37
2022-11-26T23:07:40.411Z,33.27
2022-11-26T23:10:09.236Z,33.17
2022-11-26T23:12:37.124Z,33.36
2022-11-26T23:15:05.609Z,33.26
2022-11-26T23:17:34.882Z,33.26
2022-11-26T23:20:03.066Z,33.24
2022-11-26T23:22:30.937Z,33.20
2022-11-26T23:24:59.126Z,33.54
2022-11-26T23:27:27.001Z,33.12
2022-11-26T23:29:54.874Z,33.09
2022-11-26T23:32:22.795Z,33.31
2022-11-26T23:34:52.080Z,33.24
2022-11-26T23:37:20.284Z,33.14
2022-11-26T23:39:48.187Z,33.15
2022-11-26T23:42:16.026Z,33.09
2022-11-26T23:44:43.897Z,32.90
2022-11-26T23:47:12.036Z,33.02
2022-11-26T23:49:40.267Z,33.19
2022-11-26T23:52:09.807Z,33.26
2022-11-26T23:54:37.693Z,33.03
2022-11-26T23:57:11.831Z,33.01
2022-11-26T23:59:42.688Z,33.06
